KGPZ

Grand Rapids / Itasca Co-Gordon Newstrom Field Airport

Grand Rapids, Minnesota, USA
METAR KGPZ 191056Z AUTO 00000KT 10SM OVC033 11/10 A3008 RMK AO2 SLP190 T01110100
Observed Flight Rules
Sep-19 @ 10:56 UTC (7 minutes ago) Visual Flight Rules
Visibility Clouds
10 miles
  • Overcast at 3,300' AGL
Temperatures Readings
Current 11°C / 52°F
Dewpoint 10°C / 50°F
Humidity 94%
Altimeter 30.08" Hg
Pressure 1019 hPa
Elevation 413
METAR KGPZ 191056Z AUTO 00000KT 10SM OVC033 11/10 A3008 RMK AO2 SLP190 T01110100
Observed Flight Rules
Sep-19 @ 10:56 UTC
(7 minutes ago)
VFR
Clouds
  • Overcast at 3,300' AGL
Temperature Dewpoint
11°C / 52°F 10°C / 50°F
Humidity Altimeter Pressure
94% 30.08" Hg 1019 hPa